This is the latest recevied weather packets stored in our database for station/object IV3ONZ. If no packets are shown the sender has not sent any weather packets the latest 10 day(s).
| Time | Temp. | Humidity | Pressure | Rain* | Wind** | Luminosity | Snow |
|---|---|---|---|---|---|---|---|
| 1777944004 | 13.89° C | 75% | 1017.9 hPa | 0 mm | - | 0 W/m² | - |
| 1777941433 | 13.33° C | 77% | 1018.6 hPa | 0 mm | - | 0 W/m² | - |
| 1777939504 | 13.33° C | 83% | 1019 hPa | 0 mm | - | 0 W/m² | - |
| 1777936504 | 12.78° C | 83% | 1019.4 hPa | 0 mm | - | 0 W/m² | - |
| 1777935604 | 13.33° C | 83% | 1019.3 hPa | 0 mm | - | 0 W/m² | - |
| 1777932004 | 13.89° C | 79% | 1019.6 hPa | 0 mm | - | 0 W/m² | - |
| 1777929604 | 15° C | 74% | 1019.7 hPa | 0 mm | - | 0 W/m² | - |
| 1777929303 | 15° C | 74% | 1019.7 hPa | 0 mm | - | 0 W/m² | - |
| 1777927204 | 15.56° C | 69% | 1020 hPa | 0 mm | - | 0 W/m² | - |
| 1777926304 | 15.56° C | 67% | 1019.4 hPa | 0 mm | - | 0 W/m² | - |
| 1777923904 | 16.67° C | 65% | 1019.8 hPa | 0 mm | - | 0 W/m² | - |
| 1777922403 | 16.67° C | 65% | 1019.5 hPa | 0 mm | - | 0 W/m² | - |
| 1777921937 | 16.67° C | 65% | 1019.3 hPa | 0 mm | - | 0 W/m² | - |
| 1777920004 | 17.78° C | 65% | 1018.9 hPa | 0 mm | - | 0 W/m² | - |
| 1777918337 | 18.89° C | 62% | 1018.9 hPa | 0 mm | - | 6 W/m² | - |
| 1777917604 | 20° C | 58% | 1018.9 hPa | 0 mm | - | 16 W/m² | - |
| 1777916704 | 20.56° C | 56% | 1018.7 hPa | 0 mm | - | 27 W/m² | - |
| 1777913404 | 21.67° C | 49% | 1018.6 hPa | 0 mm | - | 144 W/m² | - |
| 1777912504 | 21.11° C | 53% | 1018.6 hPa | 0 mm | - | 141 W/m² | - |
| 1777911305 | 21.11° C | 56% | 1018.9 hPa | 0 mm | - | 146 W/m² | - |
| 1777908737 | 22.22° C | 55% | 1018.8 hPa | 0 mm | - | 373 W/m² | - |
| 1777905004 | 22.22° C | 51% | 1019.4 hPa | 0 mm | - | 517 W/m² | - |
| 1777903204 | 22.22° C | 52% | 1019.7 hPa | 0 mm | - | 537 W/m² | - |
| 1777902004 | 22.78° C | 49% | 1019.7 hPa | 0 mm | - | 618 W/m² | - |
| 1777901835 | 22.22° C | 50% | 1019.9 hPa | 0 mm | - | 594 W/m² | - |
* Rain latest hour (hover to see other rain measurements)
** Current wind speed in m/s (hover to see current wind gust speed)